KMOX/MOX METAR and TAF weather

Enter ICAO airport designator
Station Type Date Time Source
KMOX METAR 2021/09/28 04:55 UTC NOAA

KMOX 280455Z AUTO 15005KT 10SM CLR 14/08 A2989 RMK AO2


Station Type Date Time Source
KMOX Decoded METAR 2021/09/28 04:55 UTC NOAA

Morris, Morris Municipal Airport, MN, United States (KMOX) 45-34N 095-58W
Sep 28, 2021 - 12:55 AM EDT / 2021.09.28 0455 UTC
Wind: from the SSE (150 degrees) at 6 MPH (5 KT):0
Visibility: 10 mile(s):0
Sky conditions: clear
Temperature: 57 F (14 C)
Dew Point: 46 F (8 C)
Relative Humidity: 67%
Pressure (altimeter): 29.89 in. Hg (1012 hPa)
ob: KMOX 280455Z AUTO 15005KT 10SM CLR 14/08 A2989 RMK AO2
cycle: 5

Station Type Date Time Source
KMOX TAF UTC NOAA

Error!

Example: see airport list